Terminal Aerodrome Forecast
Issued by NWS

Home | Current Version | Previous Version | Text Only | Print | Product List | Glossary On
Versions: 1 2 3 4 5 6 7 8 9 10 11 12 13 14 15 16
742
FTUS46 KLOX 251724
TAFPMD
TAF
KPMD 251724Z 2518/2618 25014KT P6SM BKN040
     FM252000 27018G28KT P6SM SCT060
     FM260200 27014KT P6SM SCT150
     FM260600 25008KT P6SM SCT150=

USA.gov is the U.S. government's official web portal to all federal, state and local government web resources and services.